Time;durP1;ratioP1;P1;durP2;ratioP2;P2;SDS_P1;SDS_P2;PMS_P1;PMS_P2;Temp;Humidity;BMP_temperature;BMP_pressure;BME280_temperature;BME280_humidity;BME280_pressure;Samples;Min_cycle;Max_cycle;Signal;HPM_P1;HPM_P2
2023/12/01 00:00:44;;;;;;;38.17;15.20;;;;;;;;;;4996383;28;20053;-70
2023/12/01 00:03:10;;;;;;;38.08;15.40;;;;;;;;;;4995885;28;20099;-70
2023/12/01 00:05:36;;;;;;;37.17;15.02;;;;;;;;;;4979189;28;20045;-69
2023/12/01 00:08:02;;;;;;;37.55;14.88;;;;;;;;;;5005445;28;20080;-70
2023/12/01 00:10:28;;;;;;;37.28;15.38;;;;;;;;;;4993585;28;20891;-70
2023/12/01 00:12:54;;;;;;;37.53;15.10;;;;;;;;;;4991423;28;20049;-70
2023/12/01 00:15:20;;;;;;;33.40;14.43;;;;;;;;;;4995840;28;20413;-70
2023/12/01 00:17:46;;;;;;;38.25;16.23;;;;;;;;;;4995164;28;20114;-70
2023/12/01 00:20:12;;;;;;;36.80;14.68;;;;;;;;;;4998934;28;20048;-70
2023/12/01 00:22:38;;;;;;;41.45;15.63;;;;;;;;;;4996067;28;20045;-70
2023/12/01 00:25:05;;;;;;;35.75;15.73;;;;;;;;;;4983763;28;20056;-70
2023/12/01 00:27:31;;;;;;;37.15;15.15;;;;;;;;;;4996235;28;20053;-70
2023/12/01 00:29:57;;;;;;;42.53;15.15;;;;;;;;;;4992729;28;20089;-70
2023/12/01 00:32:23;;;;;;;36.55;14.27;;;;;;;;;;4999708;28;20041;-70
2023/12/01 00:34:49;;;;;;;38.67;15.40;;;;;;;;;;5017554;28;20468;-70
2023/12/01 00:37:16;;;;;;;37.60;14.23;;;;;;;;;;4993982;28;20080;-70
2023/12/01 00:39:42;;;;;;;35.38;14.35;;;;;;;;;;4995075;28;20522;-70
2023/12/01 00:42:09;;;;;;;32.38;13.85;;;;;;;;;;4995864;28;20124;-70
2023/12/01 00:44:35;;;;;;;33.55;13.88;;;;;;;;;;5016652;28;20052;-70
2023/12/01 00:47:02;;;;;;;31.52;13.77;;;;;;;;;;5011494;28;20042;-70
2023/12/01 00:49:31;;;;;;;27.98;12.05;;;;;;;;;;4995984;28;20048;-70
2023/12/01 00:51:57;;;;;;;31.20;13.48;;;;;;;;;;4991039;28;20064;-70
2023/12/01 00:54:23;;;;;;;28.23;12.27;;;;;;;;;;5002065;28;20641;-70
2023/12/01 00:56:49;;;;;;;30.80;13.48;;;;;;;;;;5002636;28;20061;-70
2023/12/01 00:59:15;;;;;;;35.63;14.15;;;;;;;;;;5018654;28;20048;-70
2023/12/01 01:01:41;;;;;;;34.20;14.00;;;;;;;;;;5017309;28;20107;-70
2023/12/01 01:04:07;;;;;;;30.45;13.55;;;;;;;;;;5021325;28;20055;-70
2023/12/01 01:06:33;;;;;;;31.25;13.30;;;;;;;;;;5015777;28;20037;-70
2023/12/01 01:08:59;;;;;;;31.17;14.40;;;;;;;;;;5009103;28;20092;-70
2023/12/01 01:11:25;;;;;;;33.53;15.23;;;;;;;;;;5031860;28;20056;-70
2023/12/01 01:13:52;;;;;;;36.83;13.07;;;;;;;;;;5011760;28;20049;-70
2023/12/01 01:16:18;;;;;;;37.95;16.10;;;;;;;;;;5019838;28;20396;-70
2023/12/01 01:18:44;;;;;;;41.78;14.80;;;;;;;;;;5022279;28;20051;-70
2023/12/01 01:21:10;;;;;;;37.65;14.85;;;;;;;;;;5016804;28;20045;-70
2023/12/01 01:23:36;;;;;;;34.15;12.80;;;;;;;;;;5014343;28;20045;-70
2023/12/01 01:26:02;;;;;;;39.80;15.88;;;;;;;;;;5014530;28;20049;-70
2023/12/01 01:28:29;;;;;;;30.92;12.63;;;;;;;;;;5014957;28;20033;-70
2023/12/01 01:30:55;;;;;;;33.97;14.90;;;;;;;;;;5018854;28;20747;-70
2023/12/01 01:33:21;;;;;;;30.13;13.30;;;;;;;;;;5016425;28;20124;-70
2023/12/01 01:35:47;;;;;;;37.83;13.88;;;;;;;;;;5016927;28;20051;-70
2023/12/01 01:38:13;;;;;;;31.83;12.77;;;;;;;;;;5015311;28;20050;-70
2023/12/01 01:40:39;;;;;;;35.90;12.48;;;;;;;;;;5019277;28;20545;-70
2023/12/01 01:43:05;;;;;;;34.45;13.63;;;;;;;;;;5018278;28;20049;-70
2023/12/01 01:45:31;;;;;;;34.38;13.05;;;;;;;;;;5014320;28;20127;-70
2023/12/01 01:47:59;;;;;;;37.17;13.40;;;;;;;;;;5030908;28;20510;-70
2023/12/01 01:50:26;;;;;;;32.33;13.13;;;;;;;;;;5015583;28;20055;-70
2023/12/01 01:52:52;;;;;;;30.67;11.73;;;;;;;;;;5012117;28;20388;-70
2023/12/01 01:55:19;;;;;;;35.05;13.23;;;;;;;;;;5011416;28;20517;-70
2023/12/01 01:57:46;;;;;;;41.53;15.63;;;;;;;;;;5015228;28;20061;-70
2023/12/01 02:00:16;;;;;;;37.80;14.00;;;1.00;99.90;;;;;;5000549;28;20495;-70
2023/12/01 02:02:42;;;;;;;35.25;12.73;;;;;;;;;;5008886;28;20523;-70
2023/12/01 02:05:13;;;;;;;33.90;13.10;;;;;;;;;;5033303;28;20525;-70
2023/12/01 02:07:39;;;;;;;32.30;12.55;;;;;;;;;;4985474;28;20045;-70
2023/12/01 02:10:06;;;;;;;31.27;11.68;;;;;;;;;;5018573;28;20135;-70
2023/12/01 02:12:32;;;;;;;36.42;12.25;;;;;;;;;;5012323;28;20045;-70
2023/12/01 02:14:58;;;;;;;36.50;12.90;;;;;;;;;;5036162;28;20052;-70
2023/12/01 02:17:24;;;;;;;36.97;12.63;;;;;;;;;;5013937;28;20046;-70
2023/12/01 02:19:51;;;;;;;37.47;13.60;;;;;;;;;;5013596;28;20426;-70
2023/12/01 02:22:17;;;;;;;35.28;13.20;;;;;;;;;;5033510;28;20056;-70
2023/12/01 02:24:43;;;;;;;32.40;12.90;;;;;;;;;;5028075;28;20045;-70
2023/12/01 02:27:09;;;;;;;34.10;12.63;;;;;;;;;;5033136;28;20094;-70
2023/12/01 02:29:35;;;;;;;34.78;12.85;;;;;;;;;;5035582;28;20048;-70
2023/12/01 02:32:01;;;;;;;39.35;13.48;;;;;;;;;;5021979;28;20748;-70
2023/12/01 02:34:27;;;;;;;37.00;13.93;;;;;;;;;;5013223;28;20068;-70
2023/12/01 02:36:55;;;;;;;40.03;12.82;;;;;;;;;;5015556;28;20503;-70
2023/12/01 02:39:21;;;;;;;33.10;12.20;;;;;;;;;;5017437;28;20053;-70
2023/12/01 02:41:48;;;;;;;33.88;12.75;;;;;;;;;;5011923;28;20048;-70
2023/12/01 02:44:14;;;;;;;30.85;11.80;;;;;;;;;;5013552;28;20044;-70
2023/12/01 02:46:40;;;;;;;39.75;13.70;;;;;;;;;;5018834;28;20089;-70
2023/12/01 02:49:08;;;;;;;39.35;13.05;;;;;;;;;;5015003;28;20045;-70
2023/12/01 02:51:34;;;;;;;32.42;12.82;;;;;;;;;;5012503;28;20106;-70
2023/12/01 02:54:00;;;;;;;36.38;12.80;;;;;;;;;;5014017;28;20041;-70
2023/12/01 02:56:26;;;;;;;31.75;12.48;;;;;;;;;;5013583;28;20048;-70
2023/12/01 02:58:52;;;;;;;31.90;12.65;;;;;;;;;;4986411;28;20062;-70
2023/12/01 03:01:18;;;;;;;30.00;12.15;;;;;;;;;;4996549;28;20084;-70
2023/12/01 03:03:44;;;;;;;30.85;11.77;;;;;;;;;;4991843;28;20128;-70
2023/12/01 03:06:10;;;;;;;27.67;11.00;;;;;;;;;;4991587;28;20132;-70
2023/12/01 03:08:36;;;;;;;28.38;11.75;;;;;;;;;;4995820;28;20042;-70
2023/12/01 03:11:06;;;;;;;29.52;12.25;;;;;;;;;;5002939;28;20073;-70
2023/12/01 03:13:32;;;;;;;31.70;12.98;;;;;;;;;;5000373;28;20077;-70
2023/12/01 03:15:58;;;;;;;30.70;12.52;;;;;;;;;;5002383;28;20049;-70
2023/12/01 03:18:24;;;;;;;31.63;12.00;;;;;;;;;;4998071;28;20084;-70
2023/12/01 03:20:50;;;;;;;30.13;11.65;;;;;;;;;;5018070;28;20053;-70
2023/12/01 03:23:16;;;;;;;33.42;12.70;;;;;;;;;;4994943;28;20077;-70
2023/12/01 03:25:42;;;;;;;27.25;11.80;;;;;;;;;;4997789;28;20519;-70
2023/12/01 03:28:08;;;;;;;29.13;12.38;;;;;;;;;;5019995;28;20153;-70
2023/12/01 03:30:34;;;;;;;31.35;13.30;;;;;;;;;;4999881;28;20092;-70
2023/12/01 03:33:00;;;;;;;34.58;13.68;;;;;;;;;;4997164;28;20129;-70
2023/12/01 03:35:26;;;;;;;34.70;12.82;;;;;;;;;;4997679;28;20689;-70
2023/12/01 03:37:55;;;;;;;30.65;13.07;;;;;;;;;;5006874;28;20060;-70
2023/12/01 03:40:21;;;;;;;26.17;12.20;;;;;;;;;;5010923;28;20048;-70
2023/12/01 03:42:48;;;;;;;29.42;12.73;;;;;;;;;;5000702;28;20081;-70
2023/12/01 03:45:14;;;;;;;27.25;12.80;;;;;;;;;;5014942;28;20075;-70
2023/12/01 03:47:42;;;;;;;29.63;13.38;;;0.30;99.90;;;;;;4991554;28;20491;-70
2023/12/01 03:50:12;;;;;;;29.13;12.45;;;;;;;;;;5000449;28;20149;-70
2023/12/01 03:52:41;;;;;;;28.13;12.25;;;;;;;;;;4998869;28;20125;-71
2023/12/01 03:55:08;;;;;;;25.73;11.77;;;;;;;;;;4986539;28;20174;-70
2023/12/01 03:57:34;;;;;;;29.70;12.35;;;;;;;;;;5007367;28;20061;-70
2023/12/01 04:00:00;;;;;;;24.70;12.75;;;;;;;;;;4998580;28;20049;-70
2023/12/01 04:02:26;;;;;;;28.05;12.48;;;;;;;;;;5013227;28;20064;-70
2023/12/01 04:04:53;;;;;;;28.92;13.75;;;;;;;;;;5034188;28;20503;-70
2023/12/01 04:07:19;;;;;;;28.60;14.55;;;;;;;;;;5017899;28;20045;-70
2023/12/01 04:09:45;;;;;;;26.95;12.60;;;;;;;;;;5015547;28;20154;-70
2023/12/01 04:12:11;;;;;;;32.63;13.38;;;;;;;;;;5023974;28;20069;-70
2023/12/01 04:14:37;;;;;;;29.13;12.60;;;;;;;;;;5020779;28;20041;-70
2023/12/01 04:17:08;;;;;;;31.60;13.73;;;;;;;;;;5034330;28;20045;-70
2023/12/01 04:19:38;;;;;;;27.45;13.30;;;;;;;;;;5014099;28;20057;-70
2023/12/01 04:22:13;;;;;;;30.00;14.00;;;;;;;;;;5019689;28;20037;-70
2023/12/01 04:24:39;;;;;;;27.48;12.30;;;;;;;;;;5032320;28;20514;-70
2023/12/01 04:27:06;;;;;;;32.47;14.02;;;;;;;;;;5032026;28;20076;-70
2023/12/01 04:29:32;;;;;;;33.05;13.48;;;;;;;;;;5018302;28;20502;-70
2023/12/01 04:31:58;;;;;;;31.70;13.15;;;;;;;;;;5034637;28;20045;-70
2023/12/01 04:34:26;;;;;;;31.67;14.18;;;;;;;;;;5018923;28;20510;-70
2023/12/01 04:36:53;;;;;;;26.73;12.23;;;;;;;;;;5013061;28;20059;-70
2023/12/01 04:39:20;;;;;;;28.55;12.38;;;;;;;;;;5034137;28;20041;-70
2023/12/01 04:41:47;;;;;;;25.67;12.18;;;;;;;;;;5016057;28;20053;-70
2023/12/01 04:44:13;;;;;;;29.15;13.15;;;;;;;;;;5017788;28;20052;-70
2023/12/01 04:46:39;;;;;;;26.60;12.95;;;;;;;;;;5019699;28;20056;-70
2023/12/01 04:49:08;;;;;;;26.05;12.23;;;;;;;;;;5015838;28;20852;-70
2023/12/01 04:51:35;;;;;;;27.05;12.13;;;;;;;;;;5022186;28;20062;-70
2023/12/01 04:54:02;;;;;;;28.38;13.10;;;;;;;;;;5011388;28;20049;-70
2023/12/01 04:56:28;;;;;;;28.80;12.13;;;;;;;;;;5002989;28;20045;-71
2023/12/01 04:58:55;;;;;;;25.33;11.68;;;;;;;;;;5017270;28;20097;-71
2023/12/01 05:01:21;;;;;;;27.17;12.43;;;;;;;;;;4998145;28;20121;-70
2023/12/01 05:03:47;;;;;;;28.10;12.48;;;;;;;;;;4997307;28;20447;-70
2023/12/01 05:06:14;;;;;;;28.30;12.73;;;;;;;;;;4999637;28;20045;-70
2023/12/01 05:08:40;;;;;;;26.10;11.70;;;;;;;;;;5000694;28;20053;-70
2023/12/01 05:11:06;;;;;;;28.27;12.45;;;;;;;;;;5022026;28;20045;-70
2023/12/01 05:13:32;;;;;;;29.85;12.73;;;;;;;;;;4992763;28;20070;-70
2023/12/01 05:15:58;;;;;;;29.60;12.00;;;;;;;;;;5000181;28;20045;-71
2023/12/01 05:18:24;;;;;;;28.83;12.13;;;;;;;;;;4994442;28;20081;-70
2023/12/01 05:20:50;;;;;;;29.30;12.95;;;;;;;;;;4993821;28;20136;-70
2023/12/01 05:23:16;;;;;;;27.60;12.68;;;;;;;;;;4997870;28;20156;-70
2023/12/01 05:25:42;;;;;;;30.13;12.75;;;;;;;;;;4991402;28;20061;-71
2023/12/01 05:28:09;;;;;;;24.02;10.68;;;;;;;;;;4992442;28;20050;-70
2023/12/01 05:30:38;;;;;;;28.65;11.63;;;;;;;;;;4996019;28;20049;-70
2023/12/01 05:33:07;;;;;;;25.38;10.98;;;;;;;;;;5000007;28;20052;-70
2023/12/01 05:35:35;;;;;;;31.20;12.60;;;;;;;;;;4991976;28;20088;-70
2023/12/01 05:38:04;;;;;;;29.42;12.15;;;;;;;;;;4997992;28;20128;-70
2023/12/01 05:40:30;;;;;;;28.05;11.88;;;;;;;;;;4996709;28;20108;-70
2023/12/01 05:42:57;;;;;;;27.35;11.40;;;;;;;;;;4985112;28;20053;-70
2023/12/01 05:45:24;;;;;;;27.63;12.80;;;;;;;;;;4999404;28;20120;-70
2023/12/01 05:47:52;;;;;;;31.35;11.98;;;;;;;;;;5010092;28;20132;-70
2023/12/01 05:50:28;;;;;;;28.13;10.75;;;-1.40;99.90;;;;;;4998055;28;20041;-71
2023/12/01 05:52:56;;;;;;;29.88;12.43;;;;;;;;;;5013061;28;20442;-71
2023/12/01 05:55:26;;;;;;;32.75;13.75;;;;;;;;;;4989696;28;20045;-72
2023/12/01 05:58:01;;;;;;;30.15;13.02;;;;;;;;;;4990051;28;20068;-72
2023/12/01 06:00:31;;;;;;;30.70;12.83;;;;;;;;;;5009838;28;20064;-71
2023/12/01 06:03:01;;;;;;;30.45;13.20;;;;;;;;;;5032910;28;20048;-71
2023/12/01 06:05:28;;;;;;;36.83;13.48;;;;;;;;;;5034222;28;20042;-71
2023/12/01 06:07:58;;;;;;;36.03;14.13;;;;;;;;;;5013265;28;20049;-71
2023/12/01 06:10:24;;;;;;;27.52;12.55;;;;;;;;;;5012762;28;20041;-71
2023/12/01 06:12:50;;;;;;;31.10;12.73;;;;;;;;;;5011172;28;20044;-71
2023/12/01 06:15:17;;;;;;;28.42;12.50;;;;;;;;;;5027965;28;20099;-71
2023/12/01 06:17:44;;;;;;;29.63;12.30;;;;;;;;;;5007909;28;20647;-71
2023/12/01 06:20:17;;;;;;;33.63;12.63;;;;;;;;;;5030040;28;20139;-71
2023/12/01 06:22:47;;;;;;;29.48;12.38;;;;;;;;;;5012852;28;20080;-71
2023/12/01 06:25:14;;;;;;;30.17;12.02;;;;;;;;;;5016199;28;20045;-71
2023/12/01 06:27:40;;;;;;;38.22;14.05;;;;;;;;;;5016563;28;20080;-71
2023/12/01 06:30:12;;;;;;;33.22;12.90;;;;;;;;;;5015679;28;20279;-72
2023/12/01 06:32:42;;;;;;;32.83;13.27;;;;;;;;;;5015354;28;20041;-72
2023/12/01 06:35:10;;;;;;;30.67;12.57;;;;;;;;;;5013842;28;20045;-71
2023/12/01 06:37:36;;;;;;;28.80;12.57;;;;;;;;;;5014844;28;20373;-71
2023/12/01 06:40:03;;;;;;;31.88;13.25;;;;;;;;;;5018684;28;20541;-71
2023/12/01 06:42:29;;;;;;;28.33;13.48;;;;;;;;;;5011122;28;20586;-71
2023/12/01 06:44:57;;;;;;;31.10;12.32;;;;;;;;;;5016082;28;20049;-71
2023/12/01 06:47:23;;;;;;;34.83;13.48;;;;;;;;;;5010873;28;20057;-71
2023/12/01 06:49:49;;;;;;;31.45;13.23;;;;;;;;;;5015258;28;20407;-71
2023/12/01 06:52:16;;;;;;;31.48;13.48;;;;;;;;;;5013168;28;20052;-71
2023/12/01 06:58:09;;;;;;;31.10;13.02;;;;;;;;;;5316182;22;20055;-72
2023/12/01 07:00:36;;;;;;;32.03;12.30;;;;;;;;;;5045991;28;20058;-72
2023/12/01 07:03:10;;;;;;;28.30;11.52;;;;;;;;;;5046044;28;20086;-71
2023/12/01 07:05:37;;;;;;;26.45;11.73;;;;;;;;;;5041206;28;20059;-71
2023/12/01 07:08:03;;;;;;;28.40;12.10;;;;;;;;;;5045746;28;20710;-72
2023/12/01 07:10:32;;;;;;;27.20;10.82;;;;;;;;;;5043503;28;20071;-71
2023/12/01 07:12:59;;;;;;;28.00;12.13;;;;;;;;;;5053248;28;20097;-72
2023/12/01 07:15:25;;;;;;;32.90;12.73;;;;;;;;;;5042212;28;20897;-72
2023/12/01 07:17:52;;;;;;;30.48;14.55;;;;;;;;;;5038858;28;20072;-71
2023/12/01 07:20:19;;;;;;;32.53;14.05;;;;;;;;;;5056533;28;20123;-71
2023/12/01 07:22:46;;;;;;;33.40;13.65;;;;;;;;;;5033630;28;20055;-71
2023/12/01 07:25:21;;;;;;;28.73;12.52;;;;;;;;;;5037825;28;20110;-72
2023/12/01 07:27:51;;;;;;;28.45;12.63;;;;;;;;;;5038582;28;20057;-71
2023/12/01 07:30:17;;;;;;;28.48;10.98;;;;;;;;;;5033936;28;20143;-71
2023/12/01 07:32:47;;;;;;;29.95;12.00;;;;;;;;;;5029013;28;20045;-71
2023/12/01 07:35:14;;;;;;;28.15;11.77;;;;;;;;;;5054283;28;20048;-71
2023/12/01 07:37:42;;;;;;;28.45;11.63;;;;;;;;;;5035567;28;20049;-71
2023/12/01 07:40:09;;;;;;;27.88;12.00;;;;;;;;;;5043183;28;20052;-71
2023/12/01 07:42:35;;;;;;;25.73;10.68;;;;;;;;;;5056065;28;20175;-71
2023/12/01 07:45:01;;;;;;;30.58;13.00;;;;;;;;;;5037262;28;20047;-71
2023/12/01 07:47:27;;;;;;;28.70;12.57;;;;;;;;;;5041400;28;20169;-72
2023/12/01 07:49:53;;;;;;;30.50;13.20;;;;;;;;;;5034584;28;20498;-71
2023/12/01 07:52:19;;;;;;;31.35;12.70;;;;;;;;;;5039009;28;20045;-71
2023/12/01 07:54:46;;;;;;;30.23;12.40;;;;;;;;;;5057413;28;20115;-72
2023/12/01 07:57:12;;;;;;;32.13;11.68;;;;;;;;;;5039487;28;20144;-71
2023/12/01 07:59:38;;;;;;;30.20;12.20;;;;;;;;;;5035332;28;20462;-72
2023/12/01 08:02:04;;;;;;;35.95;12.55;;;;;;;;;;5040482;28;20048;-72
2023/12/01 08:04:31;;;;;;;36.47;13.32;;;;;;;;;;5038178;28;20099;-72
2023/12/01 08:06:57;;;;;;;32.85;13.70;;;;;;;;;;5045906;28;20131;-72
2023/12/01 08:09:31;;;;;;;30.13;11.93;;;;;;;;;;5044391;28;20044;-72
2023/12/01 08:11:57;;;;;;;30.33;12.38;;;;;;;;;;5066891;28;20466;-72
2023/12/01 08:14:23;;;;;;;32.20;13.32;;;;;;;;;;5044803;28;20147;-71
2023/12/01 08:16:48;;;;;;;30.92;11.75;;;;;;;;;;5031955;28;20051;-71
2023/12/01 08:19:14;;;;;;;31.50;11.93;;;;;;;;;;5042555;28;20316;-70
2023/12/01 08:21:40;;;;;;;31.73;12.93;;;;;;;;;;5041810;28;20056;-71
2023/12/01 08:24:06;;;;;;;30.30;13.05;;;;;;;;;;5044758;28;20040;-70
2023/12/01 08:26:32;;;;;;;32.08;13.45;;;;;;;;;;5030307;28;20119;-70
2023/12/01 08:28:58;;;;;;;30.80;13.05;;;;;;;;;;5024651;28;20045;-72
2023/12/01 08:31:25;;;;;;;32.05;13.25;;;;;;;;;;5047831;28;20131;-72
2023/12/01 08:33:52;;;;;;;33.67;13.43;;;;;;;;;;5047601;28;20718;-72
2023/12/01 08:36:18;;;;;;;29.80;12.80;;;;;;;;;;5061204;28;20510;-72
2023/12/01 08:38:44;;;;;;;31.50;13.73;;;;;;;;;;5044382;28;20584;-72
2023/12/01 08:41:11;;;;;;;35.05;13.70;;;;;;;;;;5049003;28;20221;-72
2023/12/01 08:43:37;;;;;;;28.30;12.00;;;;;;;;;;5047955;28;20044;-72
2023/12/01 08:46:03;;;;;;;31.48;13.15;;;;;;;;;;5040702;28;20064;-72
2023/12/01 08:48:29;;;;;;;28.73;12.43;;;;;;;;;;5046006;28;20056;-72
2023/12/01 08:50:55;;;;;;;30.20;12.15;;;;;;;;;;5032269;28;20128;-72
2023/12/01 08:53:22;;;;;;;31.42;12.27;;;;;;;;;;5045573;28;20052;-70
2023/12/01 08:55:49;;;;;;;29.83;12.77;;;;;;;;;;5048144;28;20401;-72
2023/12/01 08:58:17;;;;;;;27.80;11.93;;;;;;;;;;5048242;28;20571;-73
2023/12/01 09:00:43;;;;;;;26.33;11.85;;;;;;;;;;5051478;28;20053;-73
2023/12/01 09:03:09;;;;;;;31.48;13.88;;;;;;;;;;5045011;28;20036;-72
2023/12/01 09:05:35;;;;;;;28.23;12.45;;;;;;;;;;5048917;28;20192;-71
2023/12/01 09:08:05;;;;;;;27.60;12.65;;;;;;;;;;5047225;28;20040;-72
2023/12/01 09:10:32;;;;;;;31.05;12.25;;;;;;;;;;5045903;28;20079;-72
2023/12/01 09:12:58;;;;;;;31.00;13.95;;;;;;;;;;5044198;28;20123;-73
2023/12/01 09:15:24;;;;;;;31.83;13.60;;;;;;;;;;5043420;28;20442;-72
2023/12/01 09:17:54;;;;;;;29.90;13.52;;;;;;;;;;5039650;28;20045;-72
2023/12/01 09:20:20;;;;;;;25.90;12.57;;;;;;;;;;5042193;28;20048;-72
2023/12/01 09:22:46;;;;;;;29.90;12.70;;;;;;;;;;5043953;28;20075;-71
2023/12/01 09:25:12;;;;;;;28.27;12.80;;;;;;;;;;5048610;28;20193;-71
2023/12/01 09:27:41;;;;;;;24.17;11.70;;;;;;;;;;5048414;28;20079;-71
2023/12/01 09:30:10;;;;;;;25.85;11.82;;;;;;;;;;5045379;28;20057;-72
2023/12/01 09:32:36;;;;;;;28.60;12.77;;;;;;;;;;5039794;28;20178;-71
2023/12/01 09:35:02;;;;;;;30.40;13.00;;;;;;;;;;5041741;28;20070;-71
2023/12/01 09:37:28;;;;;;;26.40;11.75;;;;;;;;;;5037187;28;20765;-72
2023/12/01 09:39:54;;;;;;;30.38;13.07;;;;;;;;;;5040402;28;20064;-71
2023/12/01 09:42:23;;;;;;;28.02;12.68;;;;;;;;;;5039456;28;20418;-70
2023/12/01 09:44:50;;;;;;;29.02;13.50;;;;;;;;;;5040236;28;20666;-71
2023/12/01 09:47:17;;;;;;;27.88;13.45;;;;;;;;;;5043206;28;20049;-71
2023/12/01 09:49:45;;;;;;;26.98;12.02;;;;;;;;;;5035081;28;20084;-71
2023/12/01 09:52:11;;;;;;;25.85;11.82;;;;;;;;;;5063148;28;20115;-72
2023/12/01 09:54:38;;;;;;;22.00;10.73;;;;;;;;;;5046762;28;20051;-72
2023/12/01 09:57:06;;;;;;;24.63;11.70;;;;;;;;;;5058568;28;20056;-72
2023/12/01 09:59:34;;;;;;;23.10;8.90;;;;;;;;;;5045683;28;20497;-72
2023/12/01 10:02:00;;;;;;;21.15;10.43;;;;;;;;;;5044336;28;20482;-72
2023/12/01 10:04:27;;;;;;;22.02;11.40;;;;;;;;;;5044678;28;20048;-72
2023/12/01 10:06:54;;;;;;;22.00;9.90;;;;;;;;;;5039851;28;20057;-72
2023/12/01 10:09:26;;;;;;;22.48;9.23;;;;;;;;;;5036497;28;20127;-72
2023/12/01 10:12:12;;;;;;;17.63;8.00;;;;;;;;;;5039970;28;20036;-72
2023/12/01 10:14:41;;;;;;;22.30;10.25;;;1.60;99.90;;;;;;5041501;28;20700;-72
2023/12/01 10:17:08;;;;;;;21.42;9.13;;;;;;;;;;5023194;28;20103;-72
2023/12/01 10:19:44;;;;;;;22.10;10.35;;;;;;;;;;5044877;28;20387;-72
2023/12/01 10:22:11;;;;;;;25.55;11.13;;;;;;;;;;5040790;28;20146;-72
2023/12/01 10:24:37;;;;;;;16.23;7.38;;;;;;;;;;5052500;28;20044;-72
2023/12/01 10:27:05;;;;;;;18.95;9.35;;;;;;;;;;5046602;28;20784;-72
2023/12/01 10:29:32;;;;;;;18.35;7.93;;;0.80;99.90;;;;;;5036123;28;20807;-72
2023/12/01 10:32:00;;;;;;;20.95;9.82;;;;;;;;;;5043087;28;20041;-72
2023/12/01 10:34:26;;;;;;;19.65;9.65;;;;;;;;;;5042289;28;20049;-72
2023/12/01 10:36:52;;;;;;;20.30;10.05;;;;;;;;;;5057694;28;20045;-72
2023/12/01 10:39:24;;;;;;;16.80;8.93;;;;;;;;;;5034503;28;20045;-72
2023/12/01 10:41:50;;;;;;;19.20;10.13;;;;;;;;;;5055977;28;20136;-72
2023/12/01 10:44:17;;;;;;;21.38;8.45;;;;;;;;;;5038794;28;20040;-72
2023/12/01 10:46:45;;;;;;;17.10;8.75;;;;;;;;;;5033985;28;20063;-72
2023/12/01 10:49:12;;;;;;;19.08;9.73;;;;;;;;;;5040713;28;20106;-72
2023/12/01 10:51:41;;;;;;;19.33;9.45;;;;;;;;;;5039370;28;20052;-72
2023/12/01 10:54:09;;;;;;;18.00;8.05;;;;;;;;;;5056356;28;20098;-72
2023/12/01 10:56:36;;;;;;;20.50;8.90;;;;;;;;;;5036956;28;20092;-72
2023/12/01 10:59:03;;;;;;;18.80;9.23;;;;;;;;;;5043351;28;20063;-72
2023/12/01 11:01:29;;;;;;;16.33;8.95;;;;;;;;;;5044745;28;20048;-72
2023/12/01 11:03:57;;;;;;;18.35;9.20;;;;;;;;;;5034887;28;20041;-72
2023/12/01 11:06:28;;;;;;;16.25;7.68;;;;;;;;;;5037896;28;20131;-72
2023/12/01 11:09:05;;;;;;;17.58;9.35;;;;;;;;;;5037982;28;20098;-72
2023/12/01 11:11:38;;;;;;;21.08;10.05;;;;;;;;;;5044008;28;20048;-72
2023/12/01 11:14:13;;;;;;;16.83;8.90;;;;;;;;;;5036842;28;20067;-72
2023/12/01 11:16:39;;;;;;;18.30;8.98;;;;;;;;;;5035438;28;20056;-72
2023/12/01 11:19:08;;;;;;;19.33;9.88;;;;;;;;;;5038233;28;20083;-72
2023/12/01 11:21:34;;;;;;;21.63;10.05;;;;;;;;;;5040931;28;20059;-72
2023/12/01 11:24:19;;;;;;;16.45;8.80;;;;;;;;;;5036682;28;20052;-72
2023/12/01 11:26:48;;;;;;;15.33;8.23;;;;;;;;;;5060631;28;20508;-72
2023/12/01 11:29:33;;;;;;;17.85;8.77;;;;;;;;;;5041560;28;20832;-72
2023/12/01 11:32:00;;;;;;;19.08;10.52;;;;;;;;;;5042852;28;20135;-72
2023/12/01 11:34:26;;;;;;;19.00;9.15;;;;;;;;;;5044185;28;20051;-72
2023/12/01 11:36:56;;;;;;;19.05;9.88;;;;;;;;;;5039477;28;20053;-72
2023/12/01 11:39:29;;;;;;;16.23;9.35;;;;;;;;;;5047316;28;20103;-72
2023/12/01 11:41:55;;;;;;;16.75;8.90;;;;;;;;;;5044793;28;20044;-72
2023/12/01 11:44:26;;;;;;;17.02;9.15;;;;;;;;;;5062967;28;20458;-72
2023/12/01 11:46:56;;;;;;;16.88;8.85;;;;;;;;;;5038462;28;20163;-72
2023/12/01 11:49:30;;;;;;;16.00;8.80;;;;;;;;;;5047333;28;20040;-72
2023/12/01 11:51:56;;;;;;;17.58;9.32;;;;;;;;;;5039542;28;20064;-72
2023/12/01 11:54:23;;;;;;;16.10;8.82;;;;;;;;;;5044045;28;20075;-72
2023/12/01 11:56:51;;;;;;;17.50;8.63;;;;;;;;;;5059918;28;20049;-72
2023/12/01 11:59:18;;;;;;;14.15;8.32;;;;;;;;;;5040912;28;20060;-72
2023/12/01 12:01:45;;;;;;;15.27;8.30;;;;;;;;;;5043263;28;20086;-72
2023/12/01 12:04:13;;;;;;;15.30;8.70;;;;;;;;;;5041444;28;20752;-72
2023/12/01 12:06:41;;;;;;;18.27;7.93;;;;;;;;;;5040768;28;20052;-72
2023/12/01 12:09:08;;;;;;;15.40;7.65;;;;;;;;;;5046573;28;20076;-72
2023/12/01 12:11:35;;;;;;;17.65;8.40;;;;;;;;;;5023557;28;20044;-72
2023/12/01 12:14:01;;;;;;;17.63;10.23;;;;;;;;;;5040708;28;20067;-72
2023/12/01 12:16:28;;;;;;;15.38;8.55;;;;;;;;;;5034236;28;20494;-71
2023/12/01 12:18:57;;;;;;;17.38;9.07;;;;;;;;;;5035896;28;20114;-72
2023/12/01 12:21:23;;;;;;;15.48;8.27;;;;;;;;;;5045203;28;20450;-72
2023/12/01 12:23:49;;;;;;;15.90;8.63;;;;;;;;;;5045162;28;20059;-72
2023/12/01 12:26:20;;;;;;;13.45;7.88;;;;;;;;;;5027831;28;20129;-72
2023/12/01 12:28:59;;;;;;;15.90;9.13;;;;;;;;;;5062089;28;20410;-72
2023/12/01 12:31:26;;;;;;;15.20;7.93;;;;;;;;;;5040464;28;20211;-72
2023/12/01 12:33:58;;;;;;;15.27;8.57;;;;;;;;;;5044859;28;20150;-72
2023/12/01 12:36:29;;;;;;;14.13;8.15;;;;;;;;;;5046768;28;20048;-72
2023/12/01 12:38:58;;;;;;;13.82;7.95;;;;;;;;;;5063668;28;20048;-71
2023/12/01 12:41:25;;;;;;;14.25;8.30;;;;;;;;;;5043484;28;20048;-72
2023/12/01 12:43:55;;;;;;;14.07;8.30;;;;;;;;;;5044696;28;20044;-72
2023/12/01 12:46:22;;;;;;;14.57;8.48;;;;;;;;;;5040518;28;20040;-72
2023/12/01 12:48:49;;;;;;;14.38;8.43;;;;;;;;;;5064626;28;20044;-71
2023/12/01 12:51:17;;;;;;;19.30;9.73;;;;;;;;;;5037839;28;20055;-71
2023/12/01 12:53:47;;;;;;;19.80;9.45;;;;;;;;;;5042495;28;20608;-71
2023/12/01 12:56:14;;;;;;;17.42;9.10;;;;;;;;;;5044555;28;20048;-72
2023/12/01 12:58:42;;;;;;;16.35;9.02;;;;;;;;;;5045789;28;20071;-72
2023/12/01 13:01:08;;;;;;;15.10;9.32;;;;;;;;;;5046904;28;20090;-72
2023/12/01 13:03:34;;;;;;;20.40;10.40;;;;;;;;;;5045766;28;20056;-71
2023/12/01 13:06:01;;;;;;;15.77;9.00;;;;;;;;;;5041310;28;20101;-72
2023/12/01 13:08:27;;;;;;;17.02;9.45;;;;;;;;;;5063343;28;20387;-72
2023/12/01 13:10:53;;;;;;;17.73;9.80;;;;;;;;;;5042927;28;20126;-72
2023/12/01 13:13:20;;;;;;;18.88;10.40;;;;;;;;;;5040476;28;20529;-72
2023/12/01 13:15:46;;;;;;;17.48;8.98;;;;;;;;;;5060576;28;20162;-72
2023/12/01 13:18:12;;;;;;;17.75;10.07;;;;;;;;;;5039019;28;20515;-72
2023/12/01 13:20:38;;;;;;;18.80;9.57;;;;;;;;;;5063422;28;20044;-71
2023/12/01 13:23:06;;;;;;;18.30;9.68;;;;;;;;;;5040720;28;20825;-71
2023/12/01 13:25:32;;;;;;;16.83;9.25;;;;;;;;;;5011266;28;20704;-71
2023/12/01 13:27:58;;;;;;;16.50;9.20;;;;;;;;;;5033336;28;20048;-72
2023/12/01 13:30:24;;;;;;;17.65;9.60;;;;;;;;;;5033325;28;20052;-71
2023/12/01 13:32:50;;;;;;;17.55;9.57;;;;;;;;;;5036891;28;20045;-71
2023/12/01 13:35:17;;;;;;;19.15;9.75;;;;;;;;;;5035851;28;20620;-71
2023/12/01 13:37:43;;;;;;;17.23;10.65;;;;;;;;;;5052781;28;20051;-70
2023/12/01 13:40:09;;;;;;;15.70;9.00;;;;;;;;;;5036561;28;20075;-70
2023/12/01 13:42:36;;;;;;;14.05;8.20;;;;;;;;;;5037206;28;20044;-69
2023/12/01 13:45:05;;;;;;;13.88;6.85;;;;;;;;;;5035273;28;20053;-70
2023/12/01 13:47:35;;;;;;;19.00;9.38;;;;;;;;;;5040607;28;20048;-68
2023/12/01 13:50:04;;;;;;;20.20;10.43;;;;;;;;;;5040120;28;20044;-70
2023/12/01 13:52:30;;;;;;;15.68;9.00;;;;;;;;;;5055319;28;20048;-70
2023/12/01 13:54:57;;;;;;;16.10;8.95;;;;;;;;;;5052506;28;20044;-71
2023/12/01 13:57:23;;;;;;;18.40;9.07;;;;;;;;;;5034873;28;20092;-70
2023/12/01 13:59:49;;;;;;;18.02;10.02;;;;;;;;;;5039075;28;20103;-70
2023/12/01 14:02:16;;;;;;;16.77;9.55;;;;;;;;;;5038776;28;20086;-69
2023/12/01 14:04:42;;;;;;;17.75;9.95;;;;;;;;;;5037856;28;20086;-69
2023/12/01 14:07:08;;;;;;;21.17;11.18;;;;;;;;;;5022913;28;20151;-69
2023/12/01 14:09:35;;;;;;;18.73;10.63;;;;;;;;;;5035782;28;20515;-70
2023/12/01 14:12:03;;;;;;;17.83;10.48;;;;;;;;;;5024965;28;20067;-69
2023/12/01 14:14:29;;;;;;;15.93;9.13;;;;;;;;;;5028218;28;20045;-70
2023/12/01 14:16:55;;;;;;;19.80;10.43;;;;;;;;;;5040491;28;20048;-69
2023/12/01 14:19:21;;;;;;;17.38;9.55;;;;;;;;;;5048657;28;20052;-69
2023/12/01 14:21:47;;;;;;;19.77;10.60;;;;;;;;;;5040974;28;20052;-69